sensor_id;sensor_type;location;lat;lon;timestamp;pressure;altitude;pressure_sealevel;temperature;humidity
56992;BME280;42885;49.754;18.636;2023-03-31T00:00:34;97584.75;;;13.62;100.00
56992;BME280;42885;49.754;18.636;2023-03-31T00:03:07;97584.02;;;13.60;100.00
56992;BME280;42885;49.754;18.636;2023-03-31T00:05:39;97590.97;;;13.61;100.00
56992;BME280;42885;49.754;18.636;2023-03-31T00:08:12;97590.55;;;13.72;100.00
56992;BME280;42885;49.754;18.636;2023-03-31T00:10:46;97594.69;;;13.59;100.00
56992;BME280;42885;49.754;18.636;2023-03-31T00:13:17;97594.30;;;13.63;100.00
56992;BME280;42885;49.754;18.636;2023-03-31T00:15:48;97601.64;;;13.75;100.00
56992;BME280;42885;49.754;18.636;2023-03-31T00:18:19;97595.45;;;13.71;100.00
56992;BME280;42885;49.754;18.636;2023-03-31T00:20:52;97601.38;;;13.57;100.00
56992;BME280;42885;49.754;18.636;2023-03-31T00:23:23;97604.78;;;13.42;100.00
56992;BME280;42885;49.754;18.636;2023-03-31T00:25:56;97605.25;;;13.42;100.00
56992;BME280;42885;49.754;18.636;2023-03-31T00:28:27;97597.28;;;13.38;100.00
56992;BME280;42885;49.754;18.636;2023-03-31T00:31:02;97604.82;;;13.37;100.00
56992;BME280;42885;49.754;18.636;2023-03-31T00:33:33;97600.67;;;13.28;100.00
56992;BME280;42885;49.754;18.636;2023-03-31T00:36:04;97604.62;;;13.22;100.00
56992;BME280;42885;49.754;18.636;2023-03-31T00:38:35;97598.52;;;13.28;100.00
56992;BME280;42885;49.754;18.636;2023-03-31T00:41:06;97604.38;;;13.26;100.00
56992;BME280;42885;49.754;18.636;2023-03-31T00:43:38;97600.20;;;13.23;100.00
56992;BME280;42885;49.754;18.636;2023-03-31T00:46:26;97597.47;;;13.19;100.00
56992;BME280;42885;49.754;18.636;2023-03-31T00:48:57;97599.16;;;13.14;100.00
56992;BME280;42885;49.754;18.636;2023-03-31T00:51:31;97598.22;;;13.10;100.00
56992;BME280;42885;49.754;18.636;2023-03-31T00:54:05;97592.20;;;13.19;100.00
56992;BME280;42885;49.754;18.636;2023-03-31T00:56:39;97595.09;;;13.43;100.00
56992;BME280;42885;49.754;18.636;2023-03-31T00:59:11;97585.37;;;13.28;100.00
56992;BME280;42885;49.754;18.636;2023-03-31T01:01:44;97586.30;;;13.32;100.00
56992;BME280;42885;49.754;18.636;2023-03-31T01:04:16;97585.81;;;13.06;100.00
56992;BME280;42885;49.754;18.636;2023-03-31T01:06:57;97591.54;;;13.11;100.00
56992;BME280;42885;49.754;18.636;2023-03-31T01:09:28;97582.11;;;13.08;100.00
56992;BME280;42885;49.754;18.636;2023-03-31T01:12:04;97584.53;;;13.00;100.00
56992;BME280;42885;49.754;18.636;2023-03-31T01:14:35;97579.30;;;12.94;100.00
56992;BME280;42885;49.754;18.636;2023-03-31T01:17:08;97582.54;;;12.92;100.00
56992;BME280;42885;49.754;18.636;2023-03-31T01:28:37;97594.80;;;12.98;100.00
56992;BME280;42885;49.754;18.636;2023-03-31T01:43:14;97594.77;;;12.71;100.00
56992;BME280;42885;49.754;18.636;2023-03-31T01:54:11;97598.98;;;12.62;100.00
56992;BME280;42885;49.754;18.636;2023-03-31T01:57:07;97598.24;;;12.60;100.00
56992;BME280;42885;49.754;18.636;2023-03-31T01:59:35;97594.21;;;12.56;100.00
56992;BME280;42885;49.754;18.636;2023-03-31T02:02:09;97600.41;;;12.49;100.00
56992;BME280;42885;49.754;18.636;2023-03-31T02:04:45;97591.23;;;12.55;100.00
56992;BME280;42885;49.754;18.636;2023-03-31T02:07:22;97587.79;;;12.43;100.00
56992;BME280;42885;49.754;18.636;2023-03-31T02:10:00;97592.42;;;12.50;100.00
56992;BME280;42885;49.754;18.636;2023-03-31T02:12:38;97586.56;;;12.52;100.00
56992;BME280;42885;49.754;18.636;2023-03-31T02:15:09;97590.55;;;12.30;100.00
56992;BME280;42885;49.754;18.636;2023-03-31T02:17:41;97586.48;;;12.25;100.00
56992;BME280;42885;49.754;18.636;2023-03-31T02:20:17;97583.36;;;12.43;100.00
56992;BME280;42885;49.754;18.636;2023-03-31T02:22:51;97581.95;;;12.39;100.00
56992;BME280;42885;49.754;18.636;2023-03-31T02:25:41;97579.56;;;12.42;100.00
56992;BME280;42885;49.754;18.636;2023-03-31T02:28:08;97569.52;;;12.47;100.00
56992;BME280;42885;49.754;18.636;2023-03-31T02:33:31;97574.44;;;12.34;100.00
56992;BME280;42885;49.754;18.636;2023-03-31T02:36:03;97567.27;;;12.42;100.00
56992;BME280;42885;49.754;18.636;2023-03-31T02:38:37;97570.54;;;12.78;100.00
56992;BME280;42885;49.754;18.636;2023-03-31T02:41:08;97576.06;;;12.64;100.00
56992;BME280;42885;49.754;18.636;2023-03-31T02:43:39;97576.06;;;12.64;100.00
56992;BME280;42885;49.754;18.636;2023-03-31T02:46:10;97569.37;;;12.60;100.00
56992;BME280;42885;49.754;18.636;2023-03-31T02:48:48;97567.81;;;12.69;100.00
56992;BME280;42885;49.754;18.636;2023-03-31T02:51:37;97561.99;;;12.59;100.00
56992;BME280;42885;49.754;18.636;2023-03-31T03:11:36;97550.82;;;12.84;100.00
56992;BME280;42885;49.754;18.636;2023-03-31T03:14:23;97542.00;;;12.74;100.00
56992;BME280;42885;49.754;18.636;2023-03-31T03:16:51;97538.53;;;12.79;100.00
56992;BME280;42885;49.754;18.636;2023-03-31T03:19:21;97546.20;;;12.71;100.00
56992;BME280;42885;49.754;18.636;2023-03-31T03:21:53;97539.40;;;12.68;100.00
56992;BME280;42885;49.754;18.636;2023-03-31T03:24:24;97541.05;;;12.80;100.00
56992;BME280;42885;49.754;18.636;2023-03-31T03:26:57;97548.34;;;13.04;100.00
56992;BME280;42885;49.754;18.636;2023-03-31T03:29:27;97540.20;;;13.07;100.00
56992;BME280;42885;49.754;18.636;2023-03-31T03:32:00;97540.20;;;13.07;100.00
56992;BME280;42885;49.754;18.636;2023-03-31T03:34:31;97534.79;;;13.20;100.00
56992;BME280;42885;49.754;18.636;2023-03-31T03:37:02;97534.67;;;13.16;100.00
56992;BME280;42885;49.754;18.636;2023-03-31T03:39:33;97536.92;;;13.20;100.00
56992;BME280;42885;49.754;18.636;2023-03-31T03:42:04;97526.91;;;13.20;100.00
56992;BME280;42885;49.754;18.636;2023-03-31T03:44:35;97527.49;;;13.18;100.00
56992;BME280;42885;49.754;18.636;2023-03-31T03:47:06;97523.63;;;13.06;100.00
56992;BME280;42885;49.754;18.636;2023-03-31T03:49:37;97519.25;;;12.96;100.00
56992;BME280;42885;49.754;18.636;2023-03-31T03:52:08;97515.31;;;12.96;100.00
56992;BME280;42885;49.754;18.636;2023-03-31T03:54:39;97513.18;;;12.95;100.00
56992;BME280;42885;49.754;18.636;2023-03-31T03:57:10;97511.17;;;12.87;100.00
56992;BME280;42885;49.754;18.636;2023-03-31T03:59:41;97510.70;;;12.82;100.00
56992;BME280;42885;49.754;18.636;2023-03-31T04:02:12;97512.83;;;12.88;100.00
56992;BME280;42885;49.754;18.636;2023-03-31T04:04:43;97516.80;;;12.83;100.00
56992;BME280;42885;49.754;18.636;2023-03-31T04:07:14;97519.05;;;12.87;100.00
56992;BME280;42885;49.754;18.636;2023-03-31T04:09:46;97509.94;;;12.64;100.00
56992;BME280;42885;49.754;18.636;2023-03-31T04:12:16;97505.56;;;12.59;100.00
56992;BME280;42885;49.754;18.636;2023-03-31T04:14:47;97500.83;;;12.36;100.00
56992;BME280;42885;49.754;18.636;2023-03-31T04:17:18;97510.41;;;12.25;100.00
56992;BME280;42885;49.754;18.636;2023-03-31T04:19:50;97512.55;;;12.32;100.00
56992;BME280;42885;49.754;18.636;2023-03-31T04:22:21;97515.72;;;12.47;100.00
56992;BME280;42885;49.754;18.636;2023-03-31T04:24:54;97511.49;;;12.29;100.00
56992;BME280;42885;49.754;18.636;2023-03-31T04:27:27;97510.90;;;12.25;100.00
56992;BME280;42885;49.754;18.636;2023-03-31T04:29:59;97505.06;;;12.21;100.00
56992;BME280;42885;49.754;18.636;2023-03-31T04:32:30;97511.38;;;12.19;100.00
56992;BME280;42885;49.754;18.636;2023-03-31T04:35:01;97504.12;;;12.17;100.00
56992;BME280;42885;49.754;18.636;2023-03-31T04:37:33;97497.08;;;12.00;100.00
56992;BME280;42885;49.754;18.636;2023-03-31T04:40:05;97497.08;;;12.11;100.00
56992;BME280;42885;49.754;18.636;2023-03-31T04:42:39;97491.58;;;12.26;100.00
56992;BME280;42885;49.754;18.636;2023-03-31T04:45:11;97494.32;;;11.96;100.00
56992;BME280;42885;49.754;18.636;2023-03-31T04:47:42;97496.47;;;11.85;100.00
56992;BME280;42885;49.754;18.636;2023-03-31T04:50:13;97487.20;;;12.04;100.00
56992;BME280;42885;49.754;18.636;2023-03-31T04:52:44;97482.51;;;12.24;100.00
56992;BME280;42885;49.754;18.636;2023-03-31T04:55:15;97485.98;;;12.25;100.00
56992;BME280;42885;49.754;18.636;2023-03-31T04:57:47;97487.05;;;12.22;100.00
56992;BME280;42885;49.754;18.636;2023-03-31T05:00:18;97485.23;;;12.34;100.00
56992;BME280;42885;49.754;18.636;2023-03-31T05:02:49;97489.05;;;12.30;100.00
56992;BME280;42885;49.754;18.636;2023-03-31T05:05:20;97491.09;;;12.21;100.00
56992;BME280;42885;49.754;18.636;2023-03-31T05:07:51;97483.23;;;12.21;100.00
56992;BME280;42885;49.754;18.636;2023-03-31T05:10:22;97473.79;;;12.24;100.00
56992;BME280;42885;49.754;18.636;2023-03-31T05:12:53;97473.38;;;12.46;100.00
56992;BME280;42885;49.754;18.636;2023-03-31T05:15:24;97470.70;;;12.57;100.00
56992;BME280;42885;49.754;18.636;2023-03-31T05:17:57;97461.27;;;12.33;100.00
56992;BME280;42885;49.754;18.636;2023-03-31T05:20:28;97468.39;;;12.43;100.00
56992;BME280;42885;49.754;18.636;2023-03-31T05:22:59;97457.27;;;12.50;100.00
56992;BME280;42885;49.754;18.636;2023-03-31T05:25:30;97469.54;;;12.56;100.00
56992;BME280;42885;49.754;18.636;2023-03-31T05:28:02;97470.56;;;12.70;100.00
56992;BME280;42885;49.754;18.636;2023-03-31T05:30:33;97456.48;;;12.65;100.00
56992;BME280;42885;49.754;18.636;2023-03-31T05:33:04;97458.48;;;12.73;100.00
56992;BME280;42885;49.754;18.636;2023-03-31T05:35:35;97459.77;;;12.79;100.00
56992;BME280;42885;49.754;18.636;2023-03-31T05:38:06;97454.78;;;12.76;100.00
56992;BME280;42885;49.754;18.636;2023-03-31T05:40:37;97454.75;;;12.55;100.00
56992;BME280;42885;49.754;18.636;2023-03-31T05:43:08;97457.52;;;12.47;100.00
56992;BME280;42885;49.754;18.636;2023-03-31T05:45:39;97454.34;;;12.65;100.00
56992;BME280;42885;49.754;18.636;2023-03-31T05:48:10;97460.33;;;12.61;100.00
56992;BME280;42885;49.754;18.636;2023-03-31T05:50:40;97452.12;;;12.49;100.00
56992;BME280;42885;49.754;18.636;2023-03-31T05:53:11;97450.23;;;12.78;100.00
56992;BME280;42885;49.754;18.636;2023-03-31T05:55:42;97456.53;;;12.81;100.00
56992;BME280;42885;49.754;18.636;2023-03-31T05:58:14;97449.61;;;13.01;100.00
56992;BME280;42885;49.754;18.636;2023-03-31T06:00:45;97451.72;;;13.29;100.00
56992;BME280;42885;49.754;18.636;2023-03-31T06:03:16;97447.07;;;13.63;100.00
56992;BME280;42885;49.754;18.636;2023-03-31T06:05:48;97458.23;;;13.56;100.00
56992;BME280;42885;49.754;18.636;2023-03-31T06:08:21;97453.94;;;13.55;100.00
56992;BME280;42885;49.754;18.636;2023-03-31T06:10:51;97453.31;;;13.41;100.00
56992;BME280;42885;49.754;18.636;2023-03-31T06:13:23;97452.61;;;13.45;100.00
56992;BME280;42885;49.754;18.636;2023-03-31T06:15:58;97451.82;;;13.33;100.00
56992;BME280;42885;49.754;18.636;2023-03-31T06:18:31;97448.58;;;13.35;100.00
56992;BME280;42885;49.754;18.636;2023-03-31T06:21:03;97452.00;;;13.41;100.00
56992;BME280;42885;49.754;18.636;2023-03-31T06:23:34;97442.38;;;13.52;100.00
56992;BME280;42885;49.754;18.636;2023-03-31T06:26:07;97446.40;;;13.56;100.00
56992;BME280;42885;49.754;18.636;2023-03-31T06:28:38;97439.73;;;13.83;100.00
56992;BME280;42885;49.754;18.636;2023-03-31T06:31:12;97437.20;;;14.07;98.29
56992;BME280;42885;49.754;18.636;2023-03-31T06:33:43;97431.41;;;14.13;97.51
56992;BME280;42885;49.754;18.636;2023-03-31T06:36:16;97434.88;;;14.23;96.53
56992;BME280;42885;49.754;18.636;2023-03-31T06:38:48;97437.73;;;14.16;96.97
56992;BME280;42885;49.754;18.636;2023-03-31T06:41:20;97430.72;;;14.11;97.75
56992;BME280;42885;49.754;18.636;2023-03-31T06:43:51;97429.02;;;14.25;96.59
56992;BME280;42885;49.754;18.636;2023-03-31T06:46:22;97418.06;;;14.20;95.62
56992;BME280;42885;49.754;18.636;2023-03-31T06:48:53;97415.08;;;14.19;96.56
56992;BME280;42885;49.754;18.636;2023-03-31T06:51:24;97425.05;;;14.65;93.61
56992;BME280;42885;49.754;18.636;2023-03-31T06:53:55;97426.75;;;14.85;90.67
56992;BME280;42885;49.754;18.636;2023-03-31T06:56:26;97423.25;;;15.05;90.62
56992;BME280;42885;49.754;18.636;2023-03-31T06:58:57;97427.53;;;15.16;89.39
56992;BME280;42885;49.754;18.636;2023-03-31T07:01:29;97427.67;;;15.04;87.32
56992;BME280;42885;49.754;18.636;2023-03-31T07:04:00;97424.89;;;15.16;87.81
56992;BME280;42885;49.754;18.636;2023-03-31T07:06:31;97423.37;;;15.13;88.94
56992;BME280;42885;49.754;18.636;2023-03-31T07:09:02;97422.94;;;15.18;87.95
56992;BME280;42885;49.754;18.636;2023-03-31T07:11:33;97416.33;;;15.27;84.34
56992;BME280;42885;49.754;18.636;2023-03-31T07:14:04;97415.59;;;15.35;85.21
56992;BME280;42885;49.754;18.636;2023-03-31T07:16:35;97407.56;;;15.65;82.57
56992;BME280;42885;49.754;18.636;2023-03-31T07:19:06;97411.45;;;15.47;83.12
56992;BME280;42885;49.754;18.636;2023-03-31T07:21:39;97415.27;;;15.48;82.29
56992;BME280;42885;49.754;18.636;2023-03-31T07:24:10;97411.52;;;15.65;81.88
56992;BME280;42885;49.754;18.636;2023-03-31T07:26:42;97410.19;;;15.79;80.64
56992;BME280;42885;49.754;18.636;2023-03-31T07:29:13;97403.59;;;15.79;80.37
56992;BME280;42885;49.754;18.636;2023-03-31T07:31:46;97400.31;;;15.81;79.65
56992;BME280;42885;49.754;18.636;2023-03-31T07:34:17;97395.58;;;15.85;80.70
56992;BME280;42885;49.754;18.636;2023-03-31T07:36:48;97398.66;;;16.26;78.29
56992;BME280;42885;49.754;18.636;2023-03-31T07:39:20;97400.23;;;16.33;77.63
56992;BME280;42885;49.754;18.636;2023-03-31T07:41:51;97385.80;;;16.45;79.17
56992;BME280;42885;49.754;18.636;2023-03-31T07:44:22;97387.19;;;16.76;75.15
56992;BME280;42885;49.754;18.636;2023-03-31T07:46:52;97383.55;;;16.73;74.01
56992;BME280;42885;49.754;18.636;2023-03-31T07:49:23;97379.09;;;16.96;70.99
56992;BME280;42885;49.754;18.636;2023-03-31T07:51:55;97375.59;;;17.17;70.85
56992;BME280;42885;49.754;18.636;2023-03-31T07:54:26;97368.47;;;17.44;67.67
56992;BME280;42885;49.754;18.636;2023-03-31T07:56:57;97368.02;;;17.18;70.58
56992;BME280;42885;49.754;18.636;2023-03-31T07:59:30;97373.50;;;16.76;70.76
56992;BME280;42885;49.754;18.636;2023-03-31T08:02:01;97354.97;;;16.72;71.42
56992;BME280;42885;49.754;18.636;2023-03-31T08:04:32;97344.91;;;16.72;72.52
56992;BME280;42885;49.754;18.636;2023-03-31T08:07:04;97336.42;;;16.86;72.04
56992;BME280;42885;49.754;18.636;2023-03-31T08:09:34;97333.31;;;16.91;70.76
56992;BME280;42885;49.754;18.636;2023-03-31T08:12:06;97331.14;;;16.90;70.28
56992;BME280;42885;49.754;18.636;2023-03-31T08:14:37;97331.30;;;17.11;68.43
56992;BME280;42885;49.754;18.636;2023-03-31T08:17:09;97317.47;;;17.26;67.86
56992;BME280;42885;49.754;18.636;2023-03-31T08:19:40;97312.03;;;17.27;67.93
56992;BME280;42885;49.754;18.636;2023-03-31T08:22:11;97309.84;;;17.66;67.11
56992;BME280;42885;49.754;18.636;2023-03-31T08:24:42;97304.76;;;17.29;67.28
56992;BME280;42885;49.754;18.636;2023-03-31T08:27:13;97302.81;;;17.01;69.40
56992;BME280;42885;49.754;18.636;2023-03-31T08:29:45;97310.00;;;16.86;69.33
56992;BME280;42885;49.754;18.636;2023-03-31T08:32:17;97295.80;;;17.18;68.19
56992;BME280;42885;49.754;18.636;2023-03-31T08:34:48;97298.95;;;17.73;66.90
56992;BME280;42885;49.754;18.636;2023-03-31T08:37:19;97290.97;;;17.60;66.83
56992;BME280;42885;49.754;18.636;2023-03-31T08:39:50;97289.38;;;18.01;65.30
56992;BME280;42885;49.754;18.636;2023-03-31T08:45:10;97272.53;;;18.48;63.06
56992;BME280;42885;49.754;18.636;2023-03-31T08:47:41;97279.76;;;17.79;64.59
56992;BME280;42885;49.754;18.636;2023-03-31T08:50:16;97272.81;;;17.66;65.20
56992;BME280;42885;49.754;18.636;2023-03-31T08:53:05;97267.53;;;17.95;63.93
56992;BME280;42885;49.754;18.636;2023-03-31T08:55:54;97266.75;;;18.36;62.36
56992;BME280;42885;49.754;18.636;2023-03-31T08:58:26;97262.11;;;18.09;61.17
56992;BME280;42885;49.754;18.636;2023-03-31T09:01:05;97254.97;;;18.30;63.08
56992;BME280;42885;49.754;18.636;2023-03-31T09:03:45;97256.48;;;18.16;64.89
56992;BME280;42885;49.754;18.636;2023-03-31T09:06:32;97247.03;;;18.01;64.26
56992;BME280;42885;49.754;18.636;2023-03-31T09:08:48;97239.08;;;18.38;62.66
56992;BME280;42885;49.754;18.636;2023-03-31T09:11:37;97228.70;;;18.89;62.58
56992;BME280;42885;49.754;18.636;2023-03-31T09:14:33;97223.83;;;18.57;58.64
56992;BME280;42885;49.754;18.636;2023-03-31T09:17:22;97219.13;;;18.76;60.81
56992;BME280;42885;49.754;18.636;2023-03-31T09:20:06;97226.23;;;18.79;60.00
56992;BME280;42885;49.754;18.636;2023-03-31T09:22:31;97215.09;;;18.88;58.73
56992;BME280;42885;49.754;18.636;2023-03-31T09:27:42;97211.22;;;18.55;60.08
56992;BME280;42885;49.754;18.636;2023-03-31T09:30:26;97210.30;;;18.88;57.60
56992;BME280;42885;49.754;18.636;2023-03-31T09:33:12;97198.86;;;18.87;56.97
56992;BME280;42885;49.754;18.636;2023-03-31T09:35:43;97204.97;;;18.92;55.50
56992;BME280;42885;49.754;18.636;2023-03-31T09:38:15;97201.80;;;18.96;54.09
56992;BME280;42885;49.754;18.636;2023-03-31T09:40:46;97198.57;;;18.78;54.12
56992;BME280;42885;49.754;18.636;2023-03-31T09:43:21;97199.02;;;18.94;54.53
56992;BME280;42885;49.754;18.636;2023-03-31T09:45:52;97196.16;;;19.04;55.34
56992;BME280;42885;49.754;18.636;2023-03-31T09:48:25;97195.50;;;18.62;55.32
56992;BME280;42885;49.754;18.636;2023-03-31T09:51:07;97192.20;;;18.95;55.22
56992;BME280;42885;49.754;18.636;2023-03-31T09:53:46;97180.98;;;18.89;53.75
56992;BME280;42885;49.754;18.636;2023-03-31T09:59:17;97187.52;;;19.14;52.81
56992;BME280;42885;49.754;18.636;2023-03-31T10:01:51;97183.15;;;18.85;52.11
56992;BME280;42885;49.754;18.636;2023-03-31T10:04:25;97178.24;;;19.10;53.29
56992;BME280;42885;49.754;18.636;2023-03-31T10:06:56;97168.02;;;18.98;52.48
56992;BME280;42885;49.754;18.636;2023-03-31T10:09:33;97167.25;;;18.85;52.58
56992;BME280;42885;49.754;18.636;2023-03-31T10:12:14;97177.03;;;19.21;53.01
56992;BME280;42885;49.754;18.636;2023-03-31T10:14:47;97171.45;;;19.07;52.63
56992;BME280;42885;49.754;18.636;2023-03-31T10:17:23;97164.67;;;19.01;51.47
56992;BME280;42885;49.754;18.636;2023-03-31T10:19:59;97158.73;;;18.98;52.45
56992;BME280;42885;49.754;18.636;2023-03-31T10:22:31;97158.77;;;18.90;52.16
56992;BME280;42885;49.754;18.636;2023-03-31T10:25:16;97161.75;;;18.87;51.33
56992;BME280;42885;49.754;18.636;2023-03-31T10:27:51;97158.88;;;19.05;51.08
56992;BME280;42885;49.754;18.636;2023-03-31T10:30:23;97155.59;;;19.54;49.57
56992;BME280;42885;49.754;18.636;2023-03-31T10:32:56;97152.28;;;19.71;48.76
56992;BME280;42885;49.754;18.636;2023-03-31T10:35:35;97138.44;;;20.48;47.89
56992;BME280;42885;49.754;18.636;2023-03-31T10:38:21;97140.56;;;20.38;47.93
56992;BME280;42885;49.754;18.636;2023-03-31T10:40:51;97129.23;;;19.91;47.98
56992;BME280;42885;49.754;18.636;2023-03-31T10:43:38;97139.62;;;19.58;50.03
56992;BME280;42885;49.754;18.636;2023-03-31T10:46:09;97134.09;;;19.83;48.47
56992;BME280;42885;49.754;18.636;2023-03-31T10:48:42;97125.84;;;19.39;49.27
56992;BME280;42885;49.754;18.636;2023-03-31T10:51:27;97124.75;;;19.53;50.49
56992;BME280;42885;49.754;18.636;2023-03-31T10:54:00;97134.17;;;19.32;48.89
56992;BME280;42885;49.754;18.636;2023-03-31T10:56:44;97125.36;;;19.36;49.53
56992;BME280;42885;49.754;18.636;2023-03-31T11:04:51;97094.47;;;22.55;43.53
56992;BME280;42885;49.754;18.636;2023-03-31T11:07:31;97086.32;;;21.43;43.65
56992;BME280;42885;49.754;18.636;2023-03-31T11:10:31;97088.23;;;22.06;42.44
56992;BME280;42885;49.754;18.636;2023-03-31T11:13:32;97076.83;;;21.84;41.56
56992;BME280;42885;49.754;18.636;2023-03-31T11:16:22;97091.07;;;21.26;42.68
56992;BME280;42885;49.754;18.636;2023-03-31T11:33:54;97058.18;;;21.84;41.91
56992;BME280;42885;49.754;18.636;2023-03-31T11:36:37;97050.19;;;21.44;42.32
56992;BME280;42885;49.754;18.636;2023-03-31T11:42:04;97039.55;;;21.84;41.99
56992;BME280;42885;49.754;18.636;2023-03-31T11:44:40;97036.23;;;20.55;43.18
56992;BME280;42885;49.754;18.636;2023-03-31T11:47:21;97028.01;;;20.61;43.37
56992;BME280;42885;49.754;18.636;2023-03-31T11:49:54;97021.36;;;20.98;42.54
56992;BME280;42885;49.754;18.636;2023-03-31T11:52:31;97030.48;;;20.73;42.45
56992;BME280;42885;49.754;18.636;2023-03-31T11:55:06;97038.29;;;20.08;43.50
56992;BME280;42885;49.754;18.636;2023-03-31T12:00:26;97027.17;;;19.02;46.47
56992;BME280;42885;49.754;18.636;2023-03-31T12:03:15;97029.69;;;19.18;46.36
56992;BME280;42885;49.754;18.636;2023-03-31T12:05:49;97039.92;;;18.98;47.28
56992;BME280;42885;49.754;18.636;2023-03-31T12:11:21;97018.28;;;18.90;46.43
56992;BME280;42885;49.754;18.636;2023-03-31T12:16:39;97019.05;;;18.71;47.84
56992;BME280;42885;49.754;18.636;2023-03-31T12:19:21;97009.11;;;18.97;46.79
56992;BME280;42885;49.754;18.636;2023-03-31T12:22:10;97004.98;;;18.94;46.32
56992;BME280;42885;49.754;18.636;2023-03-31T12:24:42;97005.42;;;18.79;46.20
56992;BME280;42885;49.754;18.636;2023-03-31T12:27:27;97000.11;;;18.83;46.57
56992;BME280;42885;49.754;18.636;2023-03-31T12:30:11;97001.45;;;18.55;45.99
56992;BME280;42885;49.754;18.636;2023-03-31T12:32:54;97001.02;;;18.71;47.54
56992;BME280;42885;49.754;18.636;2023-03-31T12:35:49;96998.74;;;18.64;47.58
56992;BME280;42885;49.754;18.636;2023-03-31T12:38:26;97000.92;;;18.60;48.57
56992;BME280;42885;49.754;18.636;2023-03-31T12:41:15;96997.69;;;18.46;49.30
56992;BME280;42885;49.754;18.636;2023-03-31T12:52:25;96978.91;;;18.28;54.68
56992;BME280;42885;49.754;18.636;2023-03-31T12:57:37;96982.16;;;18.02;57.68
56992;BME280;42885;49.754;18.636;2023-03-31T13:02:43;96973.42;;;17.94;54.76
56992;BME280;42885;49.754;18.636;2023-03-31T13:08:09;96969.19;;;17.72;55.61
56992;BME280;42885;49.754;18.636;2023-03-31T13:10:58;96965.59;;;17.65;54.35
56992;BME280;42885;49.754;18.636;2023-03-31T13:13:29;96959.31;;;17.66;54.83
56992;BME280;42885;49.754;18.636;2023-03-31T13:16:01;96958.58;;;17.80;56.59
56992;BME280;42885;49.754;18.636;2023-03-31T13:18:33;96947.57;;;17.68;55.15
56992;BME280;42885;49.754;18.636;2023-03-31T13:21:04;96948.38;;;17.73;55.63
56992;BME280;42885;49.754;18.636;2023-03-31T13:23:38;96941.57;;;17.74;56.19
56992;BME280;42885;49.754;18.636;2023-03-31T13:34:45;96891.40;;;18.49;53.42
56992;BME280;42885;49.754;18.636;2023-03-31T13:40:25;96883.98;;;19.06;51.60
56992;BME280;42885;49.754;18.636;2023-03-31T13:43:03;96870.51;;;18.88;50.59
56992;BME280;42885;49.754;18.636;2023-03-31T13:51:58;96861.00;;;18.40;52.29
56992;BME280;42885;49.754;18.636;2023-03-31T13:57:31;96862.46;;;18.20;52.27
56992;BME280;42885;49.754;18.636;2023-03-31T14:06:11;96840.70;;;18.09;52.42
56992;BME280;42885;49.754;18.636;2023-03-31T14:08:51;96835.64;;;17.91;51.12
56992;BME280;42885;49.754;18.636;2023-03-31T14:11:30;96830.76;;;17.80;51.11
56992;BME280;42885;49.754;18.636;2023-03-31T14:14:12;96825.36;;;17.69;50.85
56992;BME280;42885;49.754;18.636;2023-03-31T14:17:04;96813.14;;;17.64;51.55
56992;BME280;42885;49.754;18.636;2023-03-31T14:28:35;96783.80;;;17.50;51.37
56992;BME280;42885;49.754;18.636;2023-03-31T14:37:06;96779.65;;;17.79;52.41
56992;BME280;42885;49.754;18.636;2023-03-31T14:39:42;96780.92;;;17.87;51.13
56992;BME280;42885;49.754;18.636;2023-03-31T14:42:22;96777.80;;;17.84;51.31
56992;BME280;42885;49.754;18.636;2023-03-31T14:44:57;96761.02;;;17.96;51.43
56992;BME280;42885;49.754;18.636;2023-03-31T14:47:28;96757.95;;;18.11;50.63
56992;BME280;42885;49.754;18.636;2023-03-31T14:50:02;96753.95;;;18.15;52.06
56992;BME280;42885;49.754;18.636;2023-03-31T14:52:34;96760.13;;;18.08;52.23
56992;BME280;42885;49.754;18.636;2023-03-31T14:55:12;96753.61;;;18.34;52.69
56992;BME280;42885;49.754;18.636;2023-03-31T14:57:39;96755.47;;;18.48;52.53
56992;BME280;42885;49.754;18.636;2023-03-31T15:00:27;96751.64;;;18.51;51.89
56992;BME280;42885;49.754;18.636;2023-03-31T15:03:00;96749.20;;;18.79;52.15
56992;BME280;42885;49.754;18.636;2023-03-31T15:05:35;96747.61;;;18.55;49.71
56992;BME280;42885;49.754;18.636;2023-03-31T15:08:15;96746.60;;;18.22;50.46
56992;BME280;42885;49.754;18.636;2023-03-31T15:10:56;96744.03;;;18.33;49.85
56992;BME280;42885;49.754;18.636;2023-03-31T15:13:43;96739.31;;;18.43;49.28
56992;BME280;42885;49.754;18.636;2023-03-31T15:15:57;96737.77;;;18.49;51.08
56992;BME280;42885;49.754;18.636;2023-03-31T15:18:28;96732.00;;;18.75;52.24
56992;BME280;42885;49.754;18.636;2023-03-31T15:20:59;96731.25;;;18.85;52.32
56992;BME280;42885;49.754;18.636;2023-03-31T15:23:30;96722.32;;;18.82;52.25
56992;BME280;42885;49.754;18.636;2023-03-31T15:26:03;96701.44;;;18.98;49.29
56992;BME280;42885;49.754;18.636;2023-03-31T15:28:42;96692.65;;;19.02;49.24
56992;BME280;42885;49.754;18.636;2023-03-31T15:31:13;96692.16;;;19.14;48.89
56992;BME280;42885;49.754;18.636;2023-03-31T15:33:46;96685.77;;;18.78;48.27
56992;BME280;42885;49.754;18.636;2023-03-31T15:36:17;96682.26;;;18.36;49.41
56992;BME280;42885;49.754;18.636;2023-03-31T15:38:55;96678.77;;;18.21;49.28
56992;BME280;42885;49.754;18.636;2023-03-31T15:41:28;96675.09;;;18.41;49.75
56992;BME280;42885;49.754;18.636;2023-03-31T15:44:26;96669.56;;;18.47;49.43
56992;BME280;42885;49.754;18.636;2023-03-31T15:49:21;96659.44;;;18.65;50.35
56992;BME280;42885;49.754;18.636;2023-03-31T15:51:54;96657.73;;;18.38;49.10